Sanders, Montana
Current Conditions -  °F | °C
As of 9:53 AM on Sunday 23 Nov 2014 (Local Time) from KMLS Reporting Station
Overcast Overcast  
Wind Chill: 25°   Ceiling: 9000
Heat Index: 36°   Visibility: 10mi
Dew Point: 23°   Wind: 21mph
Humidity: 59%   Direction: 310°NW
Pressure: 29.8"   Gusts: 35mph
Location:  46.29°N, 107.1°W
Report Text: KMLS 231653Z AUTO 31018G30KT 10SM OVC090 02/M05 A2980 RMK AO2 PK WND 30032/1600 SLP106 T00221050
Loading
Personal Weather Stations






























Interactive Weather Map New forecast layout! Learn more

10-Day Weather Forecast

Advertisements
Track Severe Weather on mobile